Time;durP1;ratioP1;P1;durP2;ratioP2;P2;SDS_P1;SDS_P2;PMS_P1;PMS_P2;Temp;Humidity;BMP_temperature;BMP_pressure;BME280_temperature;BME280_humidity;BME280_pressure;Samples;Min_cycle;Max_cycle;Signal;HPM_P1;HPM_P2
2022/07/31 00:00:55;;;;;;;;;;;27.50;94.10;;;;;;5125794;28;20184;-56
2022/07/31 00:03:21;;;;;;;;;;;27.50;94.10;;;;;;5126373;28;19935;-55
2022/07/31 00:05:47;;;;;;;;;;;27.40;94.10;;;;;;5125836;28;19919;-54
2022/07/31 00:08:13;;;;;;;;;;;27.40;94.10;;;;;;5126042;28;19910;-54
2022/07/31 00:10:40;;;;;;;;;;;27.40;94.10;;;;;;5125573;28;19962;-53
2022/07/31 00:13:06;;;;;;;;;;;27.40;94.20;;;;;;5126109;28;19903;-54
2022/07/31 00:15:32;;;;;;;;;;;27.40;94.30;;;;;;5125623;28;19912;-54
2022/07/31 00:17:59;;;;;;;;;;;27.40;94.40;;;;;;5125980;28;19974;-55
2022/07/31 00:20:25;;;;;;;;;;;27.40;94.30;;;;;;5107424;28;19920;-55
2022/07/31 00:22:51;;;;;;;;;;;27.30;94.30;;;;;;5105544;28;19908;-55
2022/07/31 00:25:17;;;;;;;;;;;27.30;94.20;;;;;;5104858;28;20219;-54
2022/07/31 00:27:44;;;;;;;;;;;27.30;94.30;;;;;;5105410;28;19950;-53
2022/07/31 00:30:13;;;;;;;;;;;27.30;94.30;;;;;;5104768;28;20222;-53
2022/07/31 00:32:40;;;;;;;;;;;27.30;94.20;;;;;;5105058;28;19908;-53
2022/07/31 00:35:07;;;;;;;;;;;27.30;94.30;;;;;;5104790;28;19919;-55
2022/07/31 00:37:36;;;;;;;;;;;27.30;94.30;;;;;;5104990;28;19978;-54
2022/07/31 00:40:06;;;;;;;;;;;27.20;94.20;;;;;;5104969;28;19950;-53
2022/07/31 00:42:33;;;;;;;;;;;27.20;94.20;;;;;;5104920;28;19971;-53
2022/07/31 00:44:59;;;;;;;;;;;27.20;94.30;;;;;;5104732;28;19912;-56
2022/07/31 00:47:26;;;;;;;;;;;27.20;94.30;;;;;;5105103;28;19911;-53
2022/07/31 00:49:52;;;;;;;;;;;27.20;94.30;;;;;;5104474;28;19923;-56
2022/07/31 00:52:20;;;;;;;;;;;27.30;94.30;;;;;;5104171;28;19904;-55
2022/07/31 00:54:46;;;;;;;;;;;27.20;94.30;;;;;;5104395;28;19984;-54
2022/07/31 00:57:14;;;;;;;;;;;27.20;94.30;;;;;;5104622;28;20191;-53
2022/07/31 00:59:40;;;;;;;;;;;27.20;94.30;;;;;;5104512;28;20160;-57
2022/07/31 01:02:07;;;;;;;;;;;27.20;94.30;;;;;;5104378;28;19908;-57
2022/07/31 01:04:33;;;;;;;;;;;27.20;94.30;;;;;;5104522;28;20193;-55
2022/07/31 01:07:02;;;;;;;;;;;27.20;94.30;;;;;;5104591;28;19904;-54
2022/07/31 01:09:28;;;;;;;;;;;27.20;94.30;;;;;;5104154;28;19965;-54
2022/07/31 01:12:11;;;;;;;;;;;27.10;94.20;;;;;;5104405;28;20233;-54
2022/07/31 01:14:39;;;;;;;;;;;27.10;94.30;;;;;;5104410;28;19949;-54
2022/07/31 01:17:06;;;;;;;;;;;27.00;94.40;;;;;;5104487;28;20183;-55
2022/07/31 01:19:40;;;;;;;;;;;27.00;94.40;;;;;;5114550;28;19951;-53
2022/07/31 01:22:28;;;;;;;;;;;27.00;94.40;;;;;;5123906;28;20974;-55
2022/07/31 01:25:04;;;;;;;;;;;27.00;94.40;;;;;;5124623;28;19907;-55
2022/07/31 01:27:30;;;;;;;;;;;27.00;94.30;;;;;;5124773;28;19907;-53
2022/07/31 01:29:58;;;;;;;;;;;27.00;94.30;;;;;;5124639;28;20196;-53
2022/07/31 01:32:26;;;;;;;;;;;27.00;94.30;;;;;;5116117;28;19915;-54
2022/07/31 01:35:00;;;;;;;;;;;27.00;94.40;;;;;;5124470;28;19946;-53
2022/07/31 01:37:49;;;;;;;;;;;27.00;94.30;;;;;;5124698;28;19935;-54
2022/07/31 01:40:19;;;;;;;;;;;27.00;94.30;;;;;;5113677;28;19914;-55
2022/07/31 01:42:49;;;;;;;;;;;27.00;94.60;;;;;;5124769;28;19949;-54
2022/07/31 01:45:16;;;;;;;;;;;26.90;94.30;;;;;;5106186;28;20188;-59
2022/07/31 01:47:43;;;;;;;;;;;27.00;94.30;;;;;;5124672;28;20162;-54
2022/07/31 01:50:10;;;;;;;;;;;26.90;94.30;;;;;;5106150;28;19918;-53
2022/07/31 01:52:38;;;;;;;;;;;27.00;94.20;;;;;;5124251;28;19914;-54
2022/07/31 01:55:04;;;;;;;;;;;27.00;94.20;;;;;;5124460;28;19908;-55
2022/07/31 01:57:31;;;;;;;;;;;26.90;94.30;;;;;;5124586;28;19908;-54
2022/07/31 02:00:04;;;;;;;;;;;26.90;94.30;;;;;;5124261;28;19915;-55
2022/07/31 02:02:31;;;;;;;;;;;26.90;94.30;;;;;;5125361;28;19953;-62
2022/07/31 02:04:57;;;;;;;;;;;26.90;94.50;;;;;;5128421;28;19908;-57
2022/07/31 02:07:24;;;;;;;;;;;26.90;94.50;;;;;;5128642;28;20092;-53
2022/07/31 02:09:51;;;;;;;;;;;26.90;94.50;;;;;;5128027;28;19912;-54
2022/07/31 02:12:18;;;;;;;;;;;26.90;94.50;;;;;;5128337;28;19908;-54
2022/07/31 02:14:44;;;;;;;;;;;26.90;94.50;;;;;;5127972;28;20214;-53
2022/07/31 02:17:12;;;;;;;;;;;26.90;94.50;;;;;;5119993;28;19986;-55
2022/07/31 02:19:39;;;;;;;;;;;26.80;94.50;;;;;;5111048;28;19915;-53
2022/07/31 02:22:05;;;;;;;;;;;26.80;94.40;;;;;;5127957;28;19918;-53
2022/07/31 02:24:32;;;;;;;;;;;26.80;94.50;;;;;;5127836;28;19983;-55
2022/07/31 02:26:59;;;;;;;;;;;26.80;94.50;;;;;;5127915;28;19907;-51
2022/07/31 02:29:27;;;;;;;;;;;26.80;94.50;;;;;;5127330;28;19911;-53
2022/07/31 02:31:54;;;;;;;;;;;26.80;94.40;;;;;;5127760;28;19908;-52
2022/07/31 02:34:22;;;;;;;;;;;26.80;94.40;;;;;;5127711;28;19908;-55
2022/07/31 02:36:48;;;;;;;;;;;26.80;94.40;;;;;;5127518;28;19907;-51
2022/07/31 02:39:15;;;;;;;;;;;26.80;94.50;;;;;;5127602;28;19919;-54
2022/07/31 02:41:42;;;;;;;;;;;26.80;94.50;;;;;;5127761;28;19907;-54
2022/07/31 02:44:10;;;;;;;;;;;26.80;94.60;;;;;;5127441;28;19907;-53
2022/07/31 02:46:37;;;;;;;;;;;26.70;94.50;;;;;;5127489;28;19915;-52
2022/07/31 02:49:04;;;;;;;;;;;26.80;94.50;;;;;;5127265;28;19998;-56
2022/07/31 02:51:30;;;;;;;;;;;26.80;94.60;;;;;;5127379;28;19925;-54
2022/07/31 02:53:57;;;;;;;;;;;26.80;94.60;;;;;;5127625;28;20131;-56
2022/07/31 02:56:23;;;;;;;;;;;26.70;94.60;;;;;;5127435;28;19940;-54
2022/07/31 02:58:50;;;;;;;;;;;26.70;94.60;;;;;;5127119;28;19908;-55
2022/07/31 03:01:16;;;;;;;;;;;26.70;94.60;;;;;;5127105;28;19904;-55
2022/07/31 03:03:42;;;;;;;;;;;26.70;94.60;;;;;;5127100;28;19907;-56
2022/07/31 03:06:08;;;;;;;;;;;26.70;94.60;;;;;;5126857;28;19903;-54
2022/07/31 03:08:34;;;;;;;;;;;26.70;94.50;;;;;;5127474;28;19907;-54
2022/07/31 03:11:01;;;;;;;;;;;26.70;94.60;;;;;;5108607;28;19918;-59
2022/07/31 03:13:28;;;;;;;;;;;26.70;94.50;;;;;;5127370;28;20085;-55
2022/07/31 03:15:55;;;;;;;;;;;26.60;94.60;;;;;;5126469;28;19911;-54
2022/07/31 03:18:21;;;;;;;;;;;26.60;94.60;;;;;;5127197;28;19978;-57
2022/07/31 03:20:50;;;;;;;;;;;26.60;94.60;;;;;;5126807;28;20203;-56
2022/07/31 03:23:19;;;;;;;;;;;26.60;94.60;;;;;;5127210;28;20206;-55
2022/07/31 03:25:45;;;;;;;;;;;26.60;94.60;;;;;;5126919;28;20199;-61
2022/07/31 03:28:11;;;;;;;;;;;26.60;94.70;;;;;;5127154;28;20223;-56
2022/07/31 03:30:37;;;;;;;;;;;26.60;94.70;;;;;;5126592;28;19912;-57
2022/07/31 03:33:03;;;;;;;;;;;26.60;94.60;;;;;;5127034;28;19908;-56
2022/07/31 03:35:30;;;;;;;;;;;26.60;94.60;;;;;;5126732;28;19907;-55
2022/07/31 03:37:56;;;;;;;;;;;26.60;94.60;;;;;;5127158;28;19907;-53
2022/07/31 03:40:22;;;;;;;;;;;26.60;94.60;;;;;;5125053;28;19923;-55
2022/07/31 03:42:49;;;;;;;;;;;26.60;94.60;;;;;;5126588;28;19975;-56
2022/07/31 03:45:15;;;;;;;;;;;26.50;94.70;;;;;;5126164;28;19907;-49
2022/07/31 03:47:41;;;;;;;;;;;26.50;94.70;;;;;;5122765;28;20183;-54
2022/07/31 03:50:08;;;;;;;;;;;26.50;94.80;;;;;;5126326;28;20248;-49
2022/07/31 03:52:35;;;;;;;;;;;26.40;94.90;;;;;;5126583;28;20087;-49
2022/07/31 03:55:01;;;;;;;;;;;26.30;95.10;;;;;;5125312;28;19908;-57
2022/07/31 03:57:27;;;;;;;;;;;26.30;95.00;;;;;;5126024;28;20013;-52
2022/07/31 03:59:56;;;;;;;;;;;26.30;95.00;;;;;;5125393;28;19953;-52
2022/07/31 04:02:26;;;;;;;;;;;26.40;95.00;;;;;;5126130;28;19945;-54
2022/07/31 04:04:52;;;;;;;;;;;26.40;95.10;;;;;;5125778;28;20142;-51
2022/07/31 04:07:18;;;;;;;;;;;26.40;95.00;;;;;;5125240;28;19911;-53
2022/07/31 04:09:44;;;;;;;;;;;26.40;95.00;;;;;;5125457;28;19957;-53
2022/07/31 04:12:10;;;;;;;;;;;26.40;94.90;;;;;;5107937;28;19942;-54
2022/07/31 04:14:36;;;;;;;;;;;26.40;95.00;;;;;;5107312;28;19919;-57
2022/07/31 04:17:03;;;;;;;;;;;26.40;94.90;;;;;;5126189;28;19911;-52
2022/07/31 04:19:31;;;;;;;;;;;26.40;94.90;;;;;;5125571;28;19938;-48
2022/07/31 04:21:58;;;;;;;;;;;26.40;94.80;;;;;;5125897;28;19919;-52
2022/07/31 04:24:24;;;;;;;;;;;26.40;94.80;;;;;;5125768;28;19904;-52
2022/07/31 04:26:51;;;;;;;;;;;26.40;94.70;;;;;;5124934;28;19919;-52
2022/07/31 04:29:17;;;;;;;;;;;26.40;94.70;;;;;;5125579;28;20192;-55
2022/07/31 04:31:44;;;;;;;;;;;26.40;94.70;;;;;;5125833;28;19934;-55
2022/07/31 04:34:10;;;;;;;;;;;26.40;94.60;;;;;;5125750;28;20263;-51
2022/07/31 04:36:36;;;;;;;;;;;26.40;94.60;;;;;;5125259;28;19943;-52
2022/07/31 04:39:03;;;;;;;;;;;26.40;94.60;;;;;;5125264;28;19908;-51
2022/07/31 04:41:29;;;;;;;;;;;26.40;94.60;;;;;;5124547;28;19904;-51
2022/07/31 04:43:56;;;;;;;;;;;26.40;94.50;;;;;;5123427;28;19903;-53
2022/07/31 04:46:25;;;;;;;;;;;26.40;94.50;;;;;;5123476;28;19923;-55
2022/07/31 04:48:51;;;;;;;;;;;26.40;94.50;;;;;;5124428;28;19938;-52
2022/07/31 04:51:18;;;;;;;;;;;26.40;94.50;;;;;;5125110;28;19904;-53
2022/07/31 04:53:45;;;;;;;;;;;26.40;94.50;;;;;;5125200;28;19923;-54
2022/07/31 04:58:56;;;;;;;;;;;26.30;94.40;;;;;;5123836;28;19978;-52
2022/07/31 05:01:22;;;;;;;;;;;26.40;94.40;;;;;;5124690;28;19931;-55
2022/07/31 05:03:48;;;;;;;;;;;26.40;94.40;;;;;;5125176;28;19952;-54
2022/07/31 05:06:14;;;;;;;;;;;26.30;94.30;;;;;;5124965;28;19911;-52
2022/07/31 05:08:40;;;;;;;;;;;26.30;94.50;;;;;;5124380;28;19907;-57
2022/07/31 05:11:22;;;;;;;;;;;26.30;94.20;;;;;;5125029;28;19953;-51
2022/07/31 05:13:49;;;;;;;;;;;26.30;94.30;;;;;;5124332;28;19995;-56
2022/07/31 05:16:17;;;;;;;;;;;26.30;94.50;;;;;;5124049;28;19904;-52
2022/07/31 05:18:44;;;;;;;;;;;26.30;94.30;;;;;;5124667;28;19912;-52
2022/07/31 05:21:11;;;;;;;;;;;26.30;94.20;;;;;;5124648;28;19904;-53
2022/07/31 05:23:37;;;;;;;;;;;26.30;94.20;;;;;;5104546;28;20164;-53
2022/07/31 05:26:04;;;;;;;;;;;26.30;94.20;;;;;;5123089;28;19931;-53
2022/07/31 05:28:30;;;;;;;;;;;26.30;94.20;;;;;;5123637;28;19912;-52
2022/07/31 05:30:56;;;;;;;;;;;26.30;94.10;;;;;;5123256;28;20103;-52
2022/07/31 05:33:22;;;;;;;;;;;26.30;94.10;;;;;;5123151;28;19911;-53
2022/07/31 05:35:49;;;;;;;;;;;26.30;94.10;;;;;;5123097;28;19916;-55
2022/07/31 05:38:15;;;;;;;;;;;26.20;94.10;;;;;;5108460;28;20122;-52
2022/07/31 05:40:41;;;;;;;;;;;26.30;94.00;;;;;;5129099;28;19904;-55
2022/07/31 05:43:07;;;;;;;;;;;26.30;94.10;;;;;;5129250;28;19965;-52
2022/07/31 05:45:33;;;;;;;;;;;26.30;94.00;;;;;;5128942;28;19911;-51
2022/07/31 05:47:59;;;;;;;;;;;26.20;94.20;;;;;;5129184;28;20214;-52
2022/07/31 05:50:26;;;;;;;;;;;26.20;94.00;;;;;;5128526;28;19951;-51
2022/07/31 05:52:52;;;;;;;;;;;26.30;93.90;;;;;;5129064;28;19939;-52
2022/07/31 05:55:18;;;;;;;;;;;26.20;94.00;;;;;;5128682;28;19949;-51
2022/07/31 05:57:44;;;;;;;;;;;26.20;94.00;;;;;;5128770;28;19912;-53
2022/07/31 06:00:10;;;;;;;;;;;26.20;93.90;;;;;;5128739;28;19904;-54
2022/07/31 06:02:36;;;;;;;;;;;26.20;93.90;;;;;;5128980;28;20126;-54
2022/07/31 06:05:03;;;;;;;;;;;26.20;93.90;;;;;;5110262;28;19904;-52
2022/07/31 06:07:29;;;;;;;;;;;26.20;93.90;;;;;;5128770;28;19941;-55
2022/07/31 06:09:55;;;;;;;;;;;26.20;93.90;;;;;;5128253;28;19953;-53
2022/07/31 06:12:21;;;;;;;;;;;26.20;93.90;;;;;;5128389;28;20073;-53
2022/07/31 06:14:48;;;;;;;;;;;26.20;93.80;;;;;;5128514;28;20203;-51
2022/07/31 06:17:14;;;;;;;;;;;26.20;93.80;;;;;;5128497;28;19974;-52
2022/07/31 06:19:40;;;;;;;;;;;26.20;93.80;;;;;;5128166;28;20200;-56
2022/07/31 06:22:07;;;;;;;;;;;26.20;93.70;;;;;;5128323;28;19912;-52
2022/07/31 06:24:33;;;;;;;;;;;26.10;93.70;;;;;;5128222;28;19938;-52
2022/07/31 06:26:59;;;;;;;;;;;26.10;93.70;;;;;;5128113;28;19912;-52
2022/07/31 06:29:27;;;;;;;;;;;26.20;93.80;;;;;;5127942;28;20142;-56
2022/07/31 06:31:53;;;;;;;;;;;26.20;93.70;;;;;;5127986;28;19947;-52
2022/07/31 06:34:19;;;;;;;;;;;26.10;93.60;;;;;;5128117;28;19921;-52
2022/07/31 06:36:45;;;;;;;;;;;26.10;93.60;;;;;;5127914;28;19975;-52
2022/07/31 06:39:11;;;;;;;;;;;26.10;93.60;;;;;;5128117;28;20100;-53
2022/07/31 06:41:45;;;;;;;;;;;26.10;93.60;;;;;;5127979;28;19908;-52
2022/07/31 06:44:12;;;;;;;;;;;26.10;93.60;;;;;;5127659;28;19908;-52
2022/07/31 06:46:38;;;;;;;;;;;26.10;93.60;;;;;;5127644;28;19908;-51
2022/07/31 06:49:04;;;;;;;;;;;26.10;93.60;;;;;;5126633;28;20103;-54
2022/07/31 06:51:31;;;;;;;;;;;26.10;93.60;;;;;;5127338;28;20095;-52
2022/07/31 06:53:57;;;;;;;;;;;26.10;93.60;;;;;;5127422;28;19979;-52
2022/07/31 06:56:23;;;;;;;;;;;26.00;93.60;;;;;;5127557;28;19904;-59
2022/07/31 06:58:49;;;;;;;;;;;26.00;93.70;;;;;;5127277;28;19915;-54
2022/07/31 07:01:16;;;;;;;;;;;26.00;93.70;;;;;;5127380;28;19903;-53
2022/07/31 07:03:42;;;;;;;;;;;26.00;93.70;;;;;;5127473;28;19929;-55
2022/07/31 07:06:08;;;;;;;;;;;26.00;93.70;;;;;;5127082;28;19904;-52
2022/07/31 07:08:34;;;;;;;;;;;26.00;93.70;;;;;;5127711;28;19949;-53
2022/07/31 07:11:00;;;;;;;;;;;26.00;93.70;;;;;;5127164;28;19919;-53
2022/07/31 07:13:26;;;;;;;;;;;26.00;93.60;;;;;;5127599;28;19914;-52
2022/07/31 07:15:52;;;;;;;;;;;26.00;93.70;;;;;;5127153;28;19914;-52
2022/07/31 07:18:20;;;;;;;;;;;26.00;93.80;;;;;;5127536;28;20152;-55
2022/07/31 07:20:48;;;;;;;;;;;25.90;93.80;;;;;;5126706;28;19918;-53
2022/07/31 07:23:14;;;;;;;;;;;25.90;93.80;;;;;;5127608;28;19919;-56
2022/07/31 07:25:40;;;;;;;;;;;25.90;93.80;;;;;;5127022;28;19904;-51
2022/07/31 07:28:06;;;;;;;;;;;25.90;93.80;;;;;;5127367;28;19958;-54
2022/07/31 07:30:33;;;;;;;;;;;25.90;93.80;;;;;;5127121;28;19964;-54
2022/07/31 07:32:59;;;;;;;;;;;25.90;93.80;;;;;;5127300;28;20017;-53
2022/07/31 07:35:26;;;;;;;;;;;25.90;93.90;;;;;;5126885;28;19949;-49
2022/07/31 07:37:52;;;;;;;;;;;25.90;94.00;;;;;;5127038;28;20241;-51
2022/07/31 07:40:19;;;;;;;;;;;25.90;93.90;;;;;;5126677;28;19908;-49
2022/07/31 07:42:45;;;;;;;;;;;25.90;93.90;;;;;;5126899;28;19908;-51
2022/07/31 07:45:12;;;;;;;;;;;25.90;93.80;;;;;;5126540;28;19915;-52
2022/07/31 07:47:38;;;;;;;;;;;25.90;93.90;;;;;;5126812;28;19936;-55
2022/07/31 07:50:05;;;;;;;;;;;25.90;93.80;;;;;;5126501;28;19986;-49
2022/07/31 07:52:31;;;;;;;;;;;25.90;93.80;;;;;;5126518;28;19908;-59
2022/07/31 07:54:57;;;;;;;;;;;25.90;93.80;;;;;;5126552;28;19935;-60
2022/07/31 07:57:23;;;;;;;;;;;25.90;93.90;;;;;;5126626;28;20184;-59
2022/07/31 07:59:49;;;;;;;;;;;25.90;93.90;;;;;;5126205;28;19914;-52
2022/07/31 08:02:16;;;;;;;;;;;25.80;93.90;;;;;;5126207;28;20268;-54
2022/07/31 08:04:42;;;;;;;;;;;25.80;93.90;;;;;;5126136;28;19908;-53
2022/07/31 08:07:08;;;;;;;;;;;25.80;93.90;;;;;;5126147;28;19908;-58
2022/07/31 08:09:35;;;;;;;;;;;25.80;93.90;;;;;;5126159;28;19912;-52
2022/07/31 08:12:02;;;;;;;;;;;25.80;93.90;;;;;;5126264;28;19908;-53
2022/07/31 08:14:28;;;;;;;;;;;25.80;93.90;;;;;;5125982;28;19912;-55
2022/07/31 08:16:55;;;;;;;;;;;25.80;93.90;;;;;;5125959;28;19911;-53
2022/07/31 08:19:21;;;;;;;;;;;25.80;93.90;;;;;;5125800;28;19923;-52
2022/07/31 08:21:47;;;;;;;;;;;25.80;93.90;;;;;;5125793;28;20184;-55
2022/07/31 08:24:15;;;;;;;;;;;25.80;93.80;;;;;;5125738;28;20141;-52
2022/07/31 08:29:26;;;;;;;;;;;25.70;93.80;;;;;;5125602;28;19987;-52
2022/07/31 08:31:52;;;;;;;;;;;25.70;93.80;;;;;;5125751;28;19912;-53
2022/07/31 08:34:18;;;;;;;;;;;25.70;93.90;;;;;;5125715;28;19966;-52
2022/07/31 08:36:44;;;;;;;;;;;25.70;93.90;;;;;;5125527;28;19911;-57
2022/07/31 08:39:10;;;;;;;;;;;25.70;93.90;;;;;;5125561;28;19941;-55
2022/07/31 08:41:39;;;;;;;;;;;25.70;93.90;;;;;;5125528;28;19912;-55
2022/07/31 08:44:05;;;;;;;;;;;25.70;93.80;;;;;;5125206;28;19926;-54
2022/07/31 08:46:35;;;;;;;;;;;25.70;93.90;;;;;;5125379;28;19904;-54
2022/07/31 08:49:02;;;;;;;;;;;25.70;93.90;;;;;;5125431;28;19948;-51
2022/07/31 08:51:29;;;;;;;;;;;25.70;93.90;;;;;;5125149;28;19903;-57
2022/07/31 08:53:56;;;;;;;;;;;25.70;93.90;;;;;;5125338;28;20211;-55
2022/07/31 08:56:24;;;;;;;;;;;25.70;93.80;;;;;;5125267;28;19911;-52
2022/07/31 08:58:50;;;;;;;;;;;25.60;93.90;;;;;;5124989;28;19942;-53
2022/07/31 09:01:17;;;;;;;;;;;25.60;93.90;;;;;;5125139;28;19926;-54
2022/07/31 09:03:43;;;;;;;;;;;25.60;93.90;;;;;;5125111;28;19911;-53
2022/07/31 09:06:09;;;;;;;;;;;25.60;93.90;;;;;;5124929;28;19935;-52
2022/07/31 09:08:36;;;;;;;;;;;25.60;93.90;;;;;;5125404;28;19919;-51
2022/07/31 09:11:02;;;;;;;;;;;25.60;93.90;;;;;;5125096;28;19908;-51
2022/07/31 09:13:28;;;;;;;;;;;25.60;93.90;;;;;;5124724;28;20072;-51
2022/07/31 09:15:57;;;;;;;;;;;25.60;93.90;;;;;;5125055;28;20241;-51
2022/07/31 09:18:24;;;;;;;;;;;25.60;93.90;;;;;;5125433;28;19911;-55
2022/07/31 09:20:54;;;;;;;;;;;25.60;93.90;;;;;;5124478;28;19916;-56
2022/07/31 09:23:21;;;;;;;;;;;25.60;93.90;;;;;;5125356;28;19912;-52
2022/07/31 09:26:06;;;;;;;;;;;25.50;93.90;;;;;;5124848;28;19904;-51
2022/07/31 09:28:32;;;;;;;;;;;25.50;93.90;;;;;;5125237;28;19912;-58
2022/07/31 09:30:58;;;;;;;;;;;25.60;94.00;;;;;;5106555;28;20138;-50
2022/07/31 09:33:26;;;;;;;;;;;25.60;94.10;;;;;;5125098;28;19918;-51
2022/07/31 09:35:53;;;;;;;;;;;25.60;94.10;;;;;;5124754;28;19975;-55
2022/07/31 09:38:19;;;;;;;;;;;25.60;94.10;;;;;;5125216;28;19912;-52
2022/07/31 09:40:46;;;;;;;;;;;25.50;94.00;;;;;;5106431;28;19904;-55
2022/07/31 09:43:21;;;;;;;;;;;25.50;94.10;;;;;;5125070;28;20192;-52
2022/07/31 09:45:56;;;;;;;;;;;25.50;94.10;;;;;;5124822;28;19904;-54
2022/07/31 09:48:22;;;;;;;;;;;25.50;94.20;;;;;;5124979;28;19937;-55
2022/07/31 09:50:53;;;;;;;;;;;25.50;94.10;;;;;;5124616;28;19915;-53
2022/07/31 09:53:19;;;;;;;;;;;25.50;94.20;;;;;;5125062;28;19978;-53
2022/07/31 09:55:49;;;;;;;;;;;25.50;94.10;;;;;;5124530;28;19904;-52
2022/07/31 09:58:15;;;;;;;;;;;25.50;94.10;;;;;;5125046;28;19916;-53
2022/07/31 10:00:42;;;;;;;;;;;25.50;94.10;;;;;;5124608;28;19904;-55
2022/07/31 10:03:08;;;;;;;;;;;25.50;94.10;;;;;;5106565;28;19961;-53
2022/07/31 10:05:36;;;;;;;;;;;25.50;94.10;;;;;;5124577;28;19941;-52
2022/07/31 10:08:03;;;;;;;;;;;25.50;94.10;;;;;;5124965;28;19953;-54
2022/07/31 10:10:30;;;;;;;;;;;25.50;94.10;;;;;;5124564;28;19907;-52
2022/07/31 10:12:58;;;;;;;;;;;25.50;94.10;;;;;;5124800;28;20098;-51
2022/07/31 10:15:25;;;;;;;;;;;25.50;94.10;;;;;;5124460;28;19904;-51
2022/07/31 10:17:51;;;;;;;;;;;25.50;94.20;;;;;;5124652;28;19912;-58
2022/07/31 10:20:20;;;;;;;;;;;25.50;94.20;;;;;;5124199;28;19939;-52
2022/07/31 10:22:47;;;;;;;;;;;25.50;94.20;;;;;;5124591;28;19912;-59
2022/07/31 10:25:34;;;;;;;;;;;25.50;94.20;;;;;;5127519;28;19904;-59
2022/07/31 10:28:00;;;;;;;;;;;25.50;94.10;;;;;;5127918;28;19920;-56
2022/07/31 10:30:26;;;;;;;;;;;25.50;94.20;;;;;;5127882;28;20218;-56
2022/07/31 10:32:53;;;;;;;;;;;25.50;94.10;;;;;;5127884;28;19934;-54
2022/07/31 10:35:21;;;;;;;;;;;25.50;94.10;;;;;;5128207;28;19904;-57
2022/07/31 10:37:55;;;;;;;;;;;25.50;94.10;;;;;;5128078;28;20227;-58
2022/07/31 10:40:21;;;;;;;;;;;25.50;94.00;;;;;;5127978;28;19904;-55
2022/07/31 10:42:47;;;;;;;;;;;25.50;93.90;;;;;;5128184;28;19912;-61
2022/07/31 10:45:13;;;;;;;;;;;25.50;93.90;;;;;;5127759;28;19931;-54
2022/07/31 10:47:40;;;;;;;;;;;25.50;93.90;;;;;;5128091;28;20128;-61
2022/07/31 10:50:06;;;;;;;;;;;25.50;93.90;;;;;;5127646;28;20314;-53
2022/07/31 10:52:34;;;;;;;;;;;25.50;93.90;;;;;;5127460;28;19912;-53
2022/07/31 10:55:00;;;;;;;;;;;25.50;93.90;;;;;;5127593;28;19904;-54
2022/07/31 10:57:28;;;;;;;;;;;25.50;93.80;;;;;;5127653;28;19974;-56
2022/07/31 10:59:54;;;;;;;;;;;25.50;93.80;;;;;;5127343;28;19975;-54
2022/07/31 11:02:27;;;;;;;;;;;25.50;93.80;;;;;;5127673;28;20207;-52
2022/07/31 11:04:53;;;;;;;;;;;25.50;93.80;;;;;;5127319;28;19904;-54
2022/07/31 11:07:21;;;;;;;;;;;25.40;93.80;;;;;;5127489;28;19915;-51
2022/07/31 11:09:49;;;;;;;;;;;25.40;93.80;;;;;;5127176;28;19915;-53
2022/07/31 11:12:19;;;;;;;;;;;25.40;93.80;;;;;;5127317;28;20099;-53
2022/07/31 11:14:45;;;;;;;;;;;25.40;93.80;;;;;;5127167;28;19903;-51
2022/07/31 11:17:11;;;;;;;;;;;25.40;93.80;;;;;;5127153;28;19978;-54
2022/07/31 11:19:41;;;;;;;;;;;25.40;93.90;;;;;;5118070;28;19923;-55
2022/07/31 11:22:14;;;;;;;;;;;25.40;93.90;;;;;;5106891;28;19927;-53
2022/07/31 11:24:40;;;;;;;;;;;25.40;93.90;;;;;;5106544;28;19904;-54
2022/07/31 11:27:06;;;;;;;;;;;25.40;93.90;;;;;;5106572;28;19919;-53
2022/07/31 11:29:38;;;;;;;;;;;25.40;94.00;;;;;;5106541;28;19916;-55
2022/07/31 11:32:04;;;;;;;;;;;25.40;94.10;;;;;;5088660;28;20116;-53
2022/07/31 11:34:30;;;;;;;;;;;25.40;94.10;;;;;;5106452;28;19904;-53
2022/07/31 11:36:57;;;;;;;;;;;25.40;94.10;;;;;;5106070;28;20199;-53
2022/07/31 11:39:27;;;;;;;;;;;25.50;94.20;;;;;;5106429;28;19912;-55
2022/07/31 11:41:53;;;;;;;;;;;25.50;94.20;;;;;;5106344;28;20203;-54
2022/07/31 11:44:20;;;;;;;;;;;25.40;94.10;;;;;;5106479;28;20099;-52
2022/07/31 11:46:48;;;;;;;;;;;25.40;94.20;;;;;;5106335;28;19912;-54
2022/07/31 11:49:19;;;;;;;;;;;25.50;94.30;;;;;;5105772;28;19971;-52
2022/07/31 11:51:46;;;;;;;;;;;25.50;94.30;;;;;;5106259;28;20126;-51
2022/07/31 11:54:21;;;;;;;;;;;25.50;94.40;;;;;;5106159;28;19912;-51
2022/07/31 11:56:47;;;;;;;;;;;25.50;94.40;;;;;;5105880;28;19912;-53
2022/07/31 11:59:13;;;;;;;;;;;25.50;94.50;;;;;;5105968;28;19911;-55
2022/07/31 12:01:39;;;;;;;;;;;25.50;94.50;;;;;;5106026;28;19943;-53
2022/07/31 12:04:05;;;;;;;;;;;25.50;94.60;;;;;;5105631;28;19942;-58
2022/07/31 12:06:33;;;;;;;;;;;25.50;94.60;;;;;;5105756;28;20319;-51
2022/07/31 12:08:59;;;;;;;;;;;25.60;94.70;;;;;;5105427;28;19926;-54
2022/07/31 12:11:25;;;;;;;;;;;25.60;94.70;;;;;;5104301;28;19958;-51
2022/07/31 12:13:51;;;;;;;;;;;25.60;94.70;;;;;;5105185;28;20204;-54
2022/07/31 12:16:17;;;;;;;;;;;25.60;94.80;;;;;;5105569;28;19904;-56
2022/07/31 12:18:48;;;;;;;;;;;25.70;94.80;;;;;;5106509;28;19911;-54
2022/07/31 12:21:17;;;;;;;;;;;25.70;94.80;;;;;;5125655;28;20398;-56
2022/07/31 12:23:51;;;;;;;;;;;25.70;94.80;;;;;;5107672;28;19907;-59
2022/07/31 12:26:30;;;;;;;;;;;25.70;94.80;;;;;;5125436;28;19903;-54
2022/07/31 12:29:01;;;;;;;;;;;25.70;94.90;;;;;;5125930;28;19910;-54
2022/07/31 12:31:28;;;;;;;;;;;25.70;94.90;;;;;;5125668;28;19918;-52
2022/07/31 12:33:54;;;;;;;;;;;25.70;94.90;;;;;;5107720;28;19922;-54
2022/07/31 12:36:20;;;;;;;;;;;25.70;94.90;;;;;;5125669;28;19906;-54
2022/07/31 12:38:57;;;;;;;;;;;25.70;95.00;;;;;;5107280;28;20254;-52
2022/07/31 12:41:23;;;;;;;;;;;25.80;95.00;;;;;;5125525;28;19911;-51
2022/07/31 12:43:49;;;;;;;;;;;25.80;95.10;;;;;;5125618;28;20211;-52
2022/07/31 12:46:15;;;;;;;;;;;25.80;95.10;;;;;;5125338;28;19911;-52
2022/07/31 12:48:41;;;;;;;;;;;25.80;95.10;;;;;;5124687;28;19914;-53
2022/07/31 12:51:08;;;;;;;;;;;25.80;95.10;;;;;;5125161;28;19908;-53
2022/07/31 12:53:34;;;;;;;;;;;25.90;95.20;;;;;;5107463;28;19934;-55
2022/07/31 12:56:00;;;;;;;;;;;25.90;95.20;;;;;;5125386;28;19907;-51
2022/07/31 12:58:26;;;;;;;;;;;25.90;95.40;;;;;;5125836;28;19942;-56
2022/07/31 13:00:53;;;;;;;;;;;25.90;95.10;;;;;;5125136;28;19926;-52
2022/07/31 13:03:20;;;;;;;;;;;25.90;95.30;;;;;;5125628;28;19969;-51
2022/07/31 13:05:49;;;;;;;;;;;25.90;95.20;;;;;;5125111;28;20172;-54
2022/07/31 13:08:15;;;;;;;;;;;26.00;95.10;;;;;;5125338;28;20180;-58
2022/07/31 13:10:41;;;;;;;;;;;26.00;95.00;;;;;;5125074;28;19935;-54
2022/07/31 13:13:07;;;;;;;;;;;26.00;95.00;;;;;;5124986;28;19965;-53
2022/07/31 13:15:33;;;;;;;;;;;26.00;94.80;;;;;;5124949;28;19903;-57
2022/07/31 13:18:03;;;;;;;;;;;26.10;94.80;;;;;;5125404;28;19912;-57
2022/07/31 13:20:30;;;;;;;;;;;26.10;94.70;;;;;;5107063;28;19923;-54
2022/07/31 13:22:58;;;;;;;;;;;26.10;94.60;;;;;;5125088;28;20111;-54
2022/07/31 13:25:25;;;;;;;;;;;26.10;94.60;;;;;;5124025;28;19946;-51
2022/07/31 13:27:51;;;;;;;;;;;26.10;94.70;;;;;;5124770;28;19915;-54
2022/07/31 13:30:17;;;;;;;;;;;26.20;94.70;;;;;;5106955;28;19908;-53
2022/07/31 13:32:45;;;;;;;;;;;26.20;94.70;;;;;;5124963;28;19912;-53
2022/07/31 13:35:13;;;;;;;;;;;26.20;94.60;;;;;;5124927;28;19904;-54
2022/07/31 13:37:40;;;;;;;;;;;26.30;94.60;;;;;;5124792;28;19978;-54
2022/07/31 13:40:06;;;;;;;;;;;26.30;94.60;;;;;;5124711;28;19904;-53
2022/07/31 13:42:32;;;;;;;;;;;26.30;94.50;;;;;;5124847;28;19911;-52
2022/07/31 13:45:00;;;;;;;;;;;26.30;94.60;;;;;;5124466;28;19904;-54
2022/07/31 13:47:26;;;;;;;;;;;26.30;94.40;;;;;;5124715;28;19912;-52
2022/07/31 13:49:52;;;;;;;;;;;26.40;94.40;;;;;;5124640;28;19950;-53
2022/07/31 13:52:18;;;;;;;;;;;26.40;94.20;;;;;;5124473;28;19911;-54
2022/07/31 13:54:44;;;;;;;;;;;26.40;94.20;;;;;;5124906;28;19903;-52
2022/07/31 13:57:10;;;;;;;;;;;26.50;94.30;;;;;;5124727;28;20214;-56
2022/07/31 13:59:37;;;;;;;;;;;26.50;94.20;;;;;;5126947;28;20195;-51
2022/07/31 14:02:03;;;;;;;;;;;26.50;94.20;;;;;;5128497;28;19912;-56
2022/07/31 14:04:30;;;;;;;;;;;26.50;94.10;;;;;;5128658;28;19949;-55
2022/07/31 14:06:56;;;;;;;;;;;26.60;93.90;;;;;;5128457;28;19931;-54
2022/07/31 14:09:22;;;;;;;;;;;26.60;94.00;;;;;;5128141;28;19963;-55
2022/07/31 14:11:48;;;;;;;;;;;26.60;94.00;;;;;;5128390;28;19983;-53
2022/07/31 14:14:14;;;;;;;;;;;26.60;94.20;;;;;;5128365;28;20104;-53
2022/07/31 14:16:41;;;;;;;;;;;26.60;93.90;;;;;;5128235;28;19911;-51
2022/07/31 14:19:07;;;;;;;;;;;26.70;94.00;;;;;;5128262;28;19983;-54
2022/07/31 14:21:33;;;;;;;;;;;26.60;93.90;;;;;;5128340;28;19947;-51